Time;durP1;ratioP1;P1;durP2;ratioP2;P2;SDS_P1;SDS_P2;PMS_P1;PMS_P2;Temp;Humidity;BMP_temperature;BMP_pressure;BME280_temperature;BME280_humidity;BME280_pressure;Samples;Min_cycle;Max_cycle;Signal;HPM_P1;HPM_P2
2023/03/08 00:00:47;;;;;;;12.73;10.97;;;;;;;5.62;68.28;95480.25;5069917;28;20207;-53
2023/03/08 00:03:16;;;;;;;16.77;12.53;;;;;;;5.67;67.78;95485.06;5070156;28;20237;-55
2023/03/08 00:05:44;;;;;;;15.97;11.73;;;;;;;5.66;67.70;95481.63;5069558;28;20210;-55
2023/03/08 00:08:10;;;;;;;16.10;12.13;;;;;;;5.62;68.78;95482.88;5070544;28;20210;-55
2023/03/08 00:10:37;;;;;;;16.67;12.27;;;;;;;5.69;68.44;95477.88;5072232;28;20206;-54
2023/03/08 00:13:05;;;;;;;17.27;11.93;;;;;;;5.73;67.60;95501.06;5074003;28;20681;-55
2023/03/08 00:15:32;;;;;;;17.70;11.70;;;;;;;5.65;68.20;95497.47;5073240;28;20228;-54
2023/03/08 00:17:58;;;;;;;14.47;11.70;;;;;;;5.62;68.08;95490.72;5073926;28;20206;-54
2023/03/08 00:20:25;;;;;;;16.23;11.70;;;;;;;5.60;68.33;95490.03;5073862;28;20585;-54
2023/03/08 00:22:51;;;;;;;17.33;11.40;;;;;;;5.63;68.07;95495.03;5074213;28;20565;-55
2023/03/08 00:25:20;;;;;;;14.73;11.80;;;;;;;5.61;68.45;95491.69;5075971;28;20535;-55
2023/03/08 00:27:50;;;;;;;15.50;11.53;;;;;;;5.57;69.67;95490.31;5075771;28;20213;-55
2023/03/08 00:30:20;;;;;;;13.23;11.03;;;;;;;5.61;69.17;95493.47;5075398;28;20206;-55
2023/03/08 00:32:46;;;;;;;13.53;11.83;;;;;;;5.60;70.12;95489.22;5076333;28;20603;-55
2023/03/08 00:35:13;;;;;;;14.07;11.37;;;;;;;5.56;71.65;95483.44;5074915;28;20208;-55
2023/03/08 00:37:39;;;;;;;14.73;11.20;;;;;;;5.63;70.32;95491.56;5076341;28;20203;-56
2023/03/08 00:40:09;;;;;;;13.03;11.07;;;;;;;5.62;70.61;95484.66;5081508;28;20202;-55
2023/03/08 00:42:36;;;;;;;16.93;12.20;;;;;;;5.56;71.19;95472.13;5080699;28;20283;-54
2023/03/08 00:45:03;;;;;;;14.50;11.20;;;;;;;5.57;70.79;95464.09;5076642;28;20297;-56
2023/03/08 00:47:30;;;;;;;15.40;11.60;;;;;;;5.53;71.06;95459.28;5074287;28;20207;-54
2023/03/08 00:49:57;;;;;;;14.80;11.77;;;;;;;5.49;70.50;95449.06;5073820;28;20234;-55
2023/03/08 00:52:23;;;;;;;16.93;12.23;;;;;;;5.61;70.23;95448.91;5073680;28;20198;-55
2023/03/08 00:54:50;;;;;;;14.27;12.13;;;;;;;5.59;69.63;95443.81;5072821;28;20202;-55
2023/03/08 00:57:17;;;;;;;16.37;11.90;;;;;;;5.64;69.41;95433.72;5074293;28;20213;-55
2023/03/08 00:59:43;;;;;;;14.27;11.57;;;;;;;5.68;69.22;95424.59;5073540;28;20214;-55
2023/03/08 01:02:09;;;;;;;14.40;11.40;;;;;;;5.75;68.75;95425.69;5073724;28;20222;-55
2023/03/08 01:04:40;;;;;;;16.40;12.40;;;;;;;5.79;68.10;95421.81;5074003;28;20241;-55
2023/03/08 01:07:06;;;;;;;14.77;11.90;;;;;;;5.81;67.85;95419.03;5073954;28;20203;-55
2023/03/08 01:09:33;;;;;;;18.23;12.70;;;;;;;5.77;67.56;95408.00;5073484;28;20223;-54
2023/03/08 01:12:01;;;;;;;15.33;12.27;;;;;;;5.70;68.22;95396.44;5073802;28;20199;-54
2023/03/08 01:14:29;;;;;;;14.13;11.60;;;;;;;5.69;68.33;95386.91;5073708;28;20257;-55
2023/03/08 01:16:56;;;;;;;15.03;11.40;;;;;;;5.68;69.17;95380.00;5072853;28;20658;-54
2023/03/08 01:19:22;;;;;;;15.33;11.37;;;;;;;5.66;69.29;95374.09;5073130;28;20209;-54
2023/03/08 01:21:51;;;;;;;15.27;11.20;;;;;;;5.74;68.78;95366.31;5072969;28;20229;-55
2023/03/08 01:24:18;;;;;;;13.23;11.33;;;;;;;5.64;68.85;95365.53;5073318;28;20202;-55
2023/03/08 01:26:44;;;;;;;14.17;12.40;;;;;;;5.64;69.11;95360.28;5072968;28;20202;-55
2023/03/08 01:29:11;;;;;;;14.80;11.40;;;;;;;5.59;70.33;95357.28;5072674;28;20210;-55
2023/03/08 01:31:37;;;;;;;15.00;12.03;;;;;;;5.63;70.41;95342.91;5072106;28;20202;-55
2023/03/08 01:34:04;;;;;;;14.40;11.30;;;;;;;5.62;71.31;95340.44;5073387;28;20252;-54
2023/03/08 01:36:31;;;;;;;12.50;11.20;;;;;;;5.64;70.03;95338.47;5072933;28;20206;-54
2023/03/08 01:39:01;;;;;;;15.80;12.53;;;;;;;5.60;70.94;95334.53;5072698;28;20560;-54
2023/03/08 01:41:29;;;;;;;13.63;11.67;;;;;;;5.61;71.58;95328.28;5072196;28;20645;-55
2023/03/08 01:43:57;;;;;;;14.60;11.53;;;;;;;5.66;70.68;95329.50;5072581;28;20230;-55
2023/03/08 01:46:27;;;;;;;14.23;12.13;;;;;;;5.64;71.53;95323.56;5072150;28;20205;-55
2023/03/08 01:48:56;;;;;;;13.23;11.60;;;;;;;5.65;71.50;95313.91;5072645;28;20249;-54
2023/03/08 01:51:28;;;;;;;13.70;11.87;;;;;;;5.63;69.43;95318.50;5068607;28;20217;-55
2023/03/08 01:53:55;;;;;;;15.30;12.77;;;;;;;5.72;69.95;95318.44;5074015;28;20642;-55
2023/03/08 01:56:24;;;;;;;13.83;11.50;;;;;;;5.73;69.28;95317.47;5074261;28;20194;-55
2023/03/08 01:58:51;;;;;;;12.67;11.10;;;;;;;5.75;70.32;95315.50;5075695;28;20199;-55
2023/03/08 02:01:18;;;;;;;15.23;12.40;;;;;;;5.76;70.07;95311.94;5075204;28;20194;-55
2023/03/08 02:03:46;;;;;;;15.27;11.93;;;;;;;5.78;70.06;95315.22;5075237;28;20219;-55
2023/03/08 02:06:13;;;;;;;15.67;11.53;;;;;;;5.80;70.97;95317.72;5070715;28;20199;-55
2023/03/08 02:08:41;;;;;;;12.33;10.93;;;;;;;5.82;70.49;95311.34;5072253;28;20212;-55
2023/03/08 02:11:07;;;;;;;12.90;11.13;;;;;;;5.85;69.29;95304.97;5072529;28;20206;-53
2023/03/08 02:13:36;;;;;;;11.63;10.37;;;;;;;5.92;67.99;95301.63;5071759;28;20206;-54
2023/03/08 02:16:05;;;;;;;12.03;10.37;;;;;;;5.91;69.46;95300.00;5071238;28;20339;-54
2023/03/08 02:18:31;;;;;;;13.53;11.37;;;;;;;5.90;68.72;95297.53;5071908;28;20214;-54
2023/03/08 02:20:58;;;;;;;14.53;11.73;;;;;;;5.90;69.27;95290.47;5072398;28;20198;-54
2023/03/08 02:23:26;;;;;;;14.20;11.30;;;;;;;5.92;69.07;95285.91;5072108;28;20229;-55
2023/03/08 02:25:55;;;;;;;12.47;10.50;;;;;;;5.95;68.85;95287.41;5071668;28;20244;-55
2023/03/08 02:28:22;;;;;;;11.63;10.43;;;;;;;5.92;68.58;95280.66;5071854;28;20210;-55
2023/03/08 02:30:50;;;;;;;12.77;9.97;;;;;;;5.88;69.06;95274.03;5071095;28;20199;-55
2023/03/08 02:33:17;;;;;;;10.53;9.37;;;;;;;5.83;70.80;95276.28;5070271;28;20550;-55
2023/03/08 02:35:44;;;;;;;12.70;10.80;;;;;;;5.85;70.10;95269.06;5071820;28;20198;-55
2023/03/08 02:38:11;;;;;;;12.13;10.50;;;;;;;5.83;69.97;95259.69;5070723;28;20194;-54
2023/03/08 02:40:39;;;;;;;13.53;11.17;;;;;;;5.67;69.83;95264.78;5071955;28;20211;-55
2023/03/08 02:43:06;;;;;;;12.47;9.97;;;;;;;5.72;70.10;95252.88;5070646;28;20312;-55
2023/03/08 02:45:33;;;;;;;14.67;10.73;;;;;;;5.75;69.67;95254.38;5071025;28;20504;-54
2023/03/08 02:48:00;;;;;;;12.60;10.63;;;;;;;5.67;70.38;95243.81;5070601;28;20598;-56
2023/03/08 02:50:27;;;;;;;12.37;11.00;;;;;;;5.56;70.82;95236.13;5071586;28;20210;-55
2023/03/08 02:52:53;;;;;;;12.53;10.80;;;;;;;5.60;70.84;95233.06;5071098;28;20199;-55
2023/03/08 02:55:22;;;;;;;11.03;9.83;;;;;;;5.51;71.17;95229.53;5071823;28;20649;-54
2023/03/08 02:57:50;;;;;;;13.43;10.63;;;;;;;5.47;71.28;95222.09;5072378;28;20289;-54
2023/03/08 03:00:19;;;;;;;13.83;10.97;;;;;;;5.46;72.72;95221.28;5072751;28;20210;-54
2023/03/08 03:02:46;;;;;;;12.37;10.50;;;;;;;5.40;73.63;95216.63;5071290;28;20670;-55
2023/03/08 03:05:12;;;;;;;11.90;9.70;;;;;;;5.43;72.36;95210.25;5071739;28;20239;-55
2023/03/08 03:07:41;;;;;;;12.20;9.93;;;;;;;5.37;73.38;95210.84;5072308;28;20207;-55
2023/03/08 03:10:11;;;;;;;10.50;9.40;;;;;;;5.31;74.74;95203.56;5073797;28;20554;-55
2023/03/08 03:12:38;;;;;;;14.70;10.00;;;;;;;5.23;75.16;95199.06;5073015;28;20209;-55
2023/03/08 03:15:07;;;;;;;12.33;10.30;;;;;;;5.24;74.64;95200.72;5071076;28;20194;-55
2023/03/08 03:17:35;;;;;;;9.20;8.20;;;;;;;5.25;74.30;95204.97;5071628;28;20199;-53
2023/03/08 03:20:03;;;;;;;10.17;7.70;;;;;;;5.42;72.27;95206.81;5071137;28;20676;-55
2023/03/08 03:22:29;;;;;;;11.43;8.70;;;;;;;5.42;72.17;95204.19;5071814;28;20258;-55
2023/03/08 03:24:56;;;;;;;9.43;7.70;;;;;;;5.47;71.75;95201.97;5070374;28;20537;-55
2023/03/08 03:27:22;;;;;;;8.40;7.43;;;;;;;5.51;72.41;95197.25;5070475;28;20638;-55
2023/03/08 03:29:50;;;;;;;7.77;7.03;;;;;;;5.51;73.65;95194.63;5070851;28;20191;-55
2023/03/08 03:32:18;;;;;;;8.10;7.23;;;;;;;5.55;73.05;95192.53;5070737;28;20222;-55
2023/03/08 03:34:44;;;;;;;9.80;7.77;;;;;;;5.54;72.47;95189.09;5071329;28;20203;-53
2023/03/08 03:37:11;;;;;;;7.63;6.83;;;;;;;5.73;71.25;95188.13;5070474;28;20260;-55
2023/03/08 03:39:38;;;;;;;7.67;6.87;;;;;;;5.71;71.74;95183.03;5070910;28;20211;-53
2023/03/08 03:42:05;;;;;;;8.03;7.23;;;;;;;5.77;71.68;95186.88;5071390;28;20202;-55
2023/03/08 03:44:32;;;;;;;7.80;7.03;;;;;;;5.70;71.08;95170.91;5069984;28;20214;-55
2023/03/08 03:46:58;;;;;;;9.87;7.10;;;;;;;5.77;71.30;95174.59;5071259;28;20202;-54
2023/03/08 03:49:26;;;;;;;8.43;6.77;;;;;;;5.75;72.80;95167.81;5070459;28;20234;-55
2023/03/08 03:51:53;;;;;;;9.40;7.30;;;;;;;5.76;72.12;95170.31;5069739;28;20654;-55
2023/03/08 03:54:19;;;;;;;7.00;6.30;;;;;;;5.75;71.99;95160.78;5070592;28;20290;-55
2023/03/08 03:56:46;;;;;;;7.87;6.97;;;;;;;5.76;72.19;95165.06;5069962;28;20256;-55
2023/03/08 03:59:13;;;;;;;7.57;6.80;;;;;;;5.77;73.38;95150.97;5070867;28;20194;-55
2023/03/08 04:01:39;;;;;;;8.77;7.00;;;;;;;5.73;72.97;95152.25;5070824;28;20210;-55
2023/03/08 04:04:06;;;;;;;8.67;7.20;;;;;;;5.78;72.08;95147.34;5071190;28;20222;-55
2023/03/08 04:06:34;;;;;;;6.93;6.23;;;;;;;5.84;72.23;95141.53;5069758;28;20289;-54
2023/03/08 04:09:03;;;;;;;7.23;6.53;;;;;;;5.77;72.49;95135.25;5070806;28;20202;-55
2023/03/08 04:11:33;;;;;;;6.67;5.97;;;;;;;5.79;72.48;95133.28;5069723;28;20205;-55
2023/03/08 04:14:00;;;;;;;7.73;6.33;;;;;;;5.81;71.93;95136.56;5070240;28;20198;-53
2023/03/08 04:16:28;;;;;;;7.90;7.03;;;;;;;5.83;72.85;95133.81;5069825;28;20202;-54
2023/03/08 04:18:58;;;;;;;7.93;7.13;;;;;;;5.83;74.61;95129.38;5070542;28;20209;-55
2023/03/08 04:21:25;;;;;;;6.90;6.27;;;;;;;5.88;72.91;95126.34;5069760;28;20198;-54
2023/03/08 04:23:53;;;;;;;6.67;6.07;;;;;;;5.83;73.50;95126.75;5070733;28;20675;-54
2023/03/08 04:26:21;;;;;;;8.00;7.20;;;;;;;5.83;72.81;95126.75;5070221;28;20241;-56
2023/03/08 04:28:48;;;;;;;8.80;6.87;;;;;;;5.82;72.68;95121.66;5071068;28;20301;-55
2023/03/08 04:31:16;;;;;;;7.83;6.83;;;;;;;5.82;74.09;95122.47;5069176;28;20195;-55
2023/03/08 04:33:42;;;;;;;7.73;6.93;;;;;;;5.87;73.23;95117.66;5070295;28;20222;-55
2023/03/08 04:36:09;;;;;;;7.87;7.07;;;;;;;5.81;72.63;95122.66;5069388;28;20203;-54
2023/03/08 04:38:36;;;;;;;8.50;7.70;;;;;;;5.84;72.60;95119.72;5070183;28;20986;-54
2023/03/08 04:41:10;;;;;;;9.47;7.20;;;;;;;5.81;74.47;95110.34;5070267;28;20202;-54
2023/03/08 04:43:37;;;;;;;8.63;7.67;;;;;;;5.80;72.74;95108.72;5070347;28;20206;-55
2023/03/08 04:46:04;;;;;;;7.93;7.13;;;;;;;5.85;72.00;95111.69;5070181;28;20202;-55
2023/03/08 04:48:31;;;;;;;7.97;7.13;;;;;;;5.84;72.99;95102.19;5070451;28;20242;-54
2023/03/08 04:50:59;;;;;;;9.43;7.50;;;;;;;5.81;72.83;95104.28;5070542;28;20221;-55
2023/03/08 04:53:26;;;;;;;8.00;7.10;;;;;;;5.88;72.45;95098.28;5069019;28;20583;-54
2023/03/08 04:55:53;;;;;;;7.93;7.13;;;;;;;5.86;72.62;95102.88;5070061;28;20218;-55
2023/03/08 04:58:21;;;;;;;8.10;7.30;;;;;;;5.85;74.97;95111.69;5073944;28;20209;-55
2023/03/08 05:00:48;;;;;;;8.00;7.20;;;;;;;5.84;75.47;95103.97;5073636;28;20583;-55
2023/03/08 05:03:14;;;;;;;7.97;6.87;;;;;;;5.75;74.60;95089.97;5073657;28;20226;-55
2023/03/08 05:05:45;;;;;;;8.10;7.30;;;;;;;5.76;74.41;95096.03;5072993;28;20206;-55
2023/03/08 05:08:11;;;;;;;7.63;6.87;;;;;;;5.75;74.25;95100.44;5079395;28;20707;-54
2023/03/08 05:10:40;;;;;;;8.93;6.93;;;;;;;5.74;74.10;95093.56;5073337;28;20236;-55
2023/03/08 05:13:06;;;;;;;9.03;7.10;;;;;;;5.77;74.10;95077.53;5073745;28;20225;-54
2023/03/08 05:15:34;;;;;;;7.50;6.80;;;;;;;5.81;74.08;95078.84;5073447;28;20262;-55
2023/03/08 05:18:01;;;;;;;9.10;7.67;;;;;;;5.73;73.88;95070.94;5073573;28;20662;-55
2023/03/08 05:20:28;;;;;;;7.97;7.17;;;;;;;5.89;72.92;95060.59;5094183;28;20195;-55
2023/03/08 05:22:54;;;;;;;8.20;7.40;;;;;;;5.89;73.40;95065.84;5075150;28;20198;-55
2023/03/08 05:25:20;;;;;;;8.30;7.30;;;;;;;5.86;73.19;95058.28;5080933;28;20207;-55
2023/03/08 05:27:47;;;;;;;7.93;7.13;;;;;;;5.89;73.85;95055.34;5092968;28;20199;-55
2023/03/08 05:30:14;;;;;;;8.07;7.27;;;;;;;5.90;73.49;95051.75;5074170;28;20213;-55
2023/03/08 05:32:43;;;;;;;7.53;6.60;;;;;;;5.84;74.20;95056.78;5074014;28;20209;-56
2023/03/08 05:35:09;;;;;;;8.10;6.90;;;;;;;5.87;74.50;95075.69;5078436;28;20654;-55
2023/03/08 05:37:36;;;;;;;8.27;7.10;;;;;;;5.94;74.33;95071.47;5079723;28;20214;-55
2023/03/08 05:40:04;;;;;;;7.87;6.80;;;;;;;5.96;73.65;95061.63;5087961;28;20198;-55
2023/03/08 05:42:31;;;;;;;8.07;7.20;;;;;;;5.88;74.02;95066.00;5079363;28;20225;-55
2023/03/08 05:44:57;;;;;;;7.37;6.67;;;;;;;5.95;74.25;95059.19;5073189;28;20222;-55
2023/03/08 05:47:24;;;;;;;7.30;6.60;;;;;;;5.98;74.05;95051.81;5073005;28;20202;-55
2023/03/08 05:49:52;;;;;;;7.37;6.67;;;;;;;5.99;74.36;95044.75;5072960;28;20235;-54
2023/03/08 05:52:21;;;;;;;7.80;7.00;;;;;;;5.84;74.50;95041.84;5072772;28;20206;-55
2023/03/08 05:54:49;;;;;;;8.70;7.37;;;;;;;5.84;74.92;95047.09;5072814;28;20202;-55
2023/03/08 05:57:16;;;;;;;8.97;7.03;;;;;;;5.92;75.41;95039.31;5073201;28;20519;-55
2023/03/08 05:59:42;;;;;;;8.57;6.87;;;;;;;5.90;75.32;95033.41;5074177;28;20198;-56
2023/03/08 06:02:09;;;;;;;7.37;6.70;;;;;;;5.94;76.87;95034.75;5072777;28;20213;-55
2023/03/08 06:04:35;;;;;;;9.90;6.90;;;;;;;5.97;76.30;95037.06;5073092;28;20237;-55
2023/03/08 06:07:03;;;;;;;8.07;7.20;;;;;;;5.94;77.04;95036.53;5073203;28;20206;-55
2023/03/08 06:09:30;;;;;;;7.80;7.00;;;;;;;5.95;77.67;95033.75;5073347;28;20210;-55
2023/03/08 06:11:56;;;;;;;7.80;7.10;;;;;;;5.91;76.31;95021.94;5074515;28;20207;-55
2023/03/08 06:14:23;;;;;;;7.60;6.90;;;;;;;5.85;76.31;95017.25;5092657;28;20183;-56
2023/03/08 06:16:49;;;;;;;7.33;6.63;;;;;;;5.90;76.25;95015.03;5093671;28;20202;-53
2023/03/08 06:19:16;;;;;;;8.43;7.63;;;;;;;5.87;77.38;95015.34;5087351;28;20213;-54
2023/03/08 06:21:43;;;;;;;7.57;6.87;;;;;;;6.00;76.40;95004.44;5084695;28;20199;-54
2023/03/08 06:24:10;;;;;;;8.17;6.97;;;;;;;6.09;75.88;95000.88;5086506;28;20242;-54
2023/03/08 06:26:37;;;;;;;7.70;7.00;;;;;;;6.10;76.11;95002.50;5089542;28;20216;-54
2023/03/08 06:29:03;;;;;;;8.60;7.17;;;;;;;6.15;76.78;94991.56;5092099;28;20205;-55
2023/03/08 06:31:30;;;;;;;8.53;7.03;;;;;;;6.10;77.04;94994.63;5097397;28;20187;-55
2023/03/08 06:33:56;;;;;;;7.97;7.17;;;;;;;6.09;75.10;95002.69;5096412;28;20187;-54
2023/03/08 06:36:23;;;;;;;8.63;7.03;;;;;;;6.20;74.64;95029.47;5095909;28;20261;-56
2023/03/08 06:38:50;;;;;;;8.60;7.70;;;;;;;6.23;75.39;95008.19;5097478;28;20175;-55
2023/03/08 06:41:20;;;;;;;9.30;7.23;;;;;;;6.25;75.38;95005.38;5095015;28;20194;-55
2023/03/08 06:43:47;;;;;;;8.73;7.13;;;;;;;6.23;74.91;95016.06;5095378;28;20203;-56
2023/03/08 06:46:15;;;;;;;7.53;6.73;;;;;;;6.17;75.27;95005.34;5090413;28;20194;-53
2023/03/08 06:48:42;;;;;;;7.20;6.50;;;;;;;6.28;75.50;95010.31;5096507;28;20214;-55
2023/03/08 06:51:08;;;;;;;7.40;6.73;;;;;;;6.41;75.26;95002.84;5096157;28;20921;-55
2023/03/08 06:53:36;;;;;;;9.30;7.33;;;;;;;6.47;74.90;95013.53;5097795;28;20194;-54
2023/03/08 06:56:03;;;;;;;7.13;6.13;;;;;;;6.61;73.72;95009.47;5097502;28;20197;-54
2023/03/08 06:58:32;;;;;;;7.67;6.50;;;;;;;6.62;72.77;94999.81;5095480;28;20201;-55
2023/03/08 07:00:59;;;;;;;7.80;6.37;;;;;;;6.70;72.40;94998.00;5098010;28;20187;-54
2023/03/08 07:03:25;;;;;;;6.53;5.80;;;;;;;6.78;72.04;94989.34;5098034;28;20194;-55
2023/03/08 07:05:52;;;;;;;6.60;6.00;;;;;;;6.77;72.25;94996.38;5098216;28;20170;-54
2023/03/08 07:08:19;;;;;;;7.17;6.47;;;;;;;6.82;71.91;95006.44;5096448;28;20197;-55
2023/03/08 07:10:45;;;;;;;6.70;5.60;;;;;;;6.82;72.86;94999.38;5093237;28;20192;-55
2023/03/08 07:13:11;;;;;;;6.90;5.90;;;;;;;6.87;72.23;94991.81;5081862;28;20217;-55
2023/03/08 07:15:40;;;;;;;7.27;6.27;;;;;;;6.86;73.15;94977.06;5070159;28;20225;-55
2023/03/08 07:18:07;;;;;;;6.53;5.83;;;;;;;6.93;72.46;94962.28;5071264;28;20243;-56
2023/03/08 07:20:33;;;;;;;6.77;6.03;;;;;;;6.95;71.97;94959.47;5072418;28;20217;-55
2023/03/08 07:23:00;;;;;;;7.70;6.47;;;;;;;7.00;72.17;94963.28;5072276;28;20198;-55
2023/03/08 07:25:27;;;;;;;6.67;6.07;;;;;;;6.85;71.09;94975.41;5070688;28;20730;-55
2023/03/08 07:27:54;;;;;;;7.37;6.33;;;;;;;6.93;71.01;94978.06;5071270;28;20206;-55
2023/03/08 07:30:20;;;;;;;8.57;6.70;;;;;;;6.89;72.17;94970.66;5071114;28;20614;-56
2023/03/08 07:32:48;;;;;;;7.13;6.23;;;;;;;6.87;72.13;94968.16;5071049;28;20210;-56
2023/03/08 07:35:15;;;;;;;7.60;5.90;;;;;;;6.90;72.15;94980.19;5069691;28;20203;-54
2023/03/08 07:37:44;;;;;;;7.73;6.93;;;;;;;6.98;74.38;95003.81;5070910;28;21436;-54
2023/03/08 07:40:12;;;;;;;10.53;7.60;;;;;;;6.98;71.83;95002.03;5072247;28;20209;-56
2023/03/08 07:42:42;;;;;;;10.00;8.10;;;;;;;7.03;73.30;95006.81;5087684;28;20206;-59
2023/03/08 07:45:10;;;;;;;6.77;6.07;;;;;;;7.12;72.50;95012.91;5095075;28;20241;-56
2023/03/08 07:47:37;;;;;;;6.73;6.10;;;;;;;7.05;72.61;95001.41;5077652;28;20258;-56
2023/03/08 07:50:05;;;;;;;8.20;5.73;;;;;;;6.98;72.78;95006.44;5070237;28;20247;-57
2023/03/08 07:52:31;;;;;;;6.73;5.77;;;;;;;6.90;73.63;95011.72;5070985;28;20222;-55
2023/03/08 07:54:58;;;;;;;7.20;5.77;;;;;;;6.82;73.18;95001.19;5070857;28;20211;-56
2023/03/08 07:57:25;;;;;;;5.90;5.40;;;;;;;6.84;73.14;94997.41;5071157;28;20195;-55
2023/03/08 07:59:51;;;;;;;5.33;4.83;;;;;;;6.93;73.30;94993.00;5070433;28;20222;-55
2023/03/08 08:02:18;;;;;;;5.77;5.27;;;;;;;6.96;75.48;95001.38;5070769;28;20218;-56
2023/03/08 08:04:44;;;;;;;6.03;5.50;;;;;;;6.99;76.55;95003.69;5074789;28;20225;-56
2023/03/08 08:07:15;;;;;;;7.40;5.73;;;;;;;6.93;75.80;94993.81;5078694;28;20195;-56
2023/03/08 08:09:42;;;;;;;7.17;5.60;;;;;;;6.99;77.04;94990.53;5075763;28;20302;-56
2023/03/08 08:12:09;;;;;;;6.33;5.73;;;;;;;7.05;75.80;94991.69;5072568;28;20194;-56
2023/03/08 08:14:35;;;;;;;7.73;5.90;;;;;;;7.06;78.44;94974.94;5070883;28;20194;-55
2023/03/08 08:17:04;;;;;;;5.60;4.87;;;;;;;7.12;76.84;94973.50;5070622;28;20289;-56
2023/03/08 08:19:31;;;;;;;6.00;5.40;;;;;;;6.97;75.41;94968.88;5070773;28;20202;-55
2023/03/08 08:21:57;;;;;;;5.83;4.87;;;;;;;7.13;73.23;94956.72;5070030;28;20206;-56
2023/03/08 08:24:26;;;;;;;5.23;4.73;;;;;;;7.22;73.03;94947.88;5069545;28;20320;-53
2023/03/08 08:26:52;;;;;;;5.73;5.23;;;;;;;7.28;74.82;94955.09;5070705;28;20207;-55
2023/03/08 08:29:19;;;;;;;5.30;4.90;;;;;;;7.33;74.46;94943.06;5070562;28;20214;-56
2023/03/08 08:31:45;;;;;;;5.77;5.17;;;;;;;7.18;73.55;94930.78;5072546;28;20213;-56
2023/03/08 08:34:12;;;;;;;5.03;4.53;;;;;;;7.34;74.36;94928.97;5073798;28;20202;-55
2023/03/08 08:36:40;;;;;;;5.50;4.87;;;;;;;7.42;72.92;94936.84;5073897;28;20201;-56
2023/03/08 08:39:06;;;;;;;6.27;5.43;;;;;;;7.34;72.72;94936.00;5073924;28;20199;-56
2023/03/08 08:41:34;;;;;;;5.70;5.20;;;;;;;7.25;72.82;94929.13;5074110;28;20211;-56
2023/03/08 08:44:02;;;;;;;5.47;4.97;;;;;;;7.30;73.44;94939.97;5073405;28;20782;-56
2023/03/08 08:46:29;;;;;;;5.60;5.07;;;;;;;7.31;72.46;94937.19;5073207;28;20209;-55
2023/03/08 08:48:58;;;;;;;5.43;4.93;;;;;;;7.38;73.50;94945.22;5073089;28;20234;-56
2023/03/08 08:51:24;;;;;;;6.83;4.77;;;;;;;7.38;74.48;94959.19;5072320;28;20199;-56
2023/03/08 08:53:51;;;;;;;6.67;5.13;;;;;;;7.39;74.51;94960.03;5073851;28;20215;-56
2023/03/08 08:56:20;;;;;;;6.07;5.47;;;;;;;7.26;74.08;94957.88;5073026;28;20195;-56
2023/03/08 08:58:48;;;;;;;5.40;5.00;;;;;;;7.34;73.31;94942.09;5073501;28;20209;-56
2023/03/08 09:01:15;;;;;;;5.97;5.17;;;;;;;7.34;74.10;94934.22;5073389;28;20260;-56
2023/03/08 09:03:42;;;;;;;5.67;5.13;;;;;;;7.47;76.74;94936.38;5073554;28;20301;-56
2023/03/08 09:06:08;;;;;;;6.00;5.40;;;;;;;7.46;74.40;94947.84;5073072;28;20546;-56
2023/03/08 09:08:34;;;;;;;6.13;5.53;;;;;;;7.41;76.67;94943.09;5072445;28;20202;-56
2023/03/08 09:11:06;;;;;;;7.10;6.20;;;;;;;7.44;76.81;94945.38;5073622;28;20210;-55
2023/03/08 09:13:32;;;;;;;5.40;4.90;;;;;;;7.35;78.13;94932.41;5073755;28;20217;-57
2023/03/08 09:16:00;;;;;;;7.10;5.60;;;;;;;7.35;78.45;94946.38;5073019;28;20231;-56
2023/03/08 09:18:27;;;;;;;6.47;5.30;;;;;;;7.41;77.60;94940.47;5073285;28;20214;-57
2023/03/08 09:20:53;;;;;;;5.00;4.60;;;;;;;7.53;77.67;94954.09;5073232;28;20202;-56
2023/03/08 09:23:20;;;;;;;7.63;5.30;;;;;;;7.53;79.31;94946.22;5073640;28;20207;-56
2023/03/08 09:25:55;;;;;;;9.13;5.50;;;;;;;7.65;79.88;94955.38;5072877;28;20222;-56
2023/03/08 09:28:22;;;;;;;5.90;5.40;;;;;;;7.66;81.33;94970.19;5072634;28;20252;-56
2023/03/08 09:30:51;;;;;;;6.30;5.70;;;;;;;7.70;80.78;94955.72;5074113;28;20202;-56
2023/03/08 09:33:20;;;;;;;5.77;5.17;;;;;;;7.73;79.97;94960.66;5073466;28;20692;-56
2023/03/08 09:35:58;;;;;;;5.90;5.30;;;;;;;7.68;81.63;94936.66;5072920;28;20202;-55
2023/03/08 09:38:25;;;;;;;9.00;5.67;;;;;;;7.67;83.79;94940.28;5073280;28;20205;-55
2023/03/08 09:41:00;;;;;;;6.37;5.77;;;;;;;7.67;85.50;94945.53;5072612;28;20202;-55
2023/03/08 09:43:37;;;;;;;6.33;5.50;;;;;;;7.82;84.09;94943.88;5071313;28;20217;-56
2023/03/08 09:46:04;;;;;;;4.90;4.50;;;;;;;7.87;82.16;94946.81;5072374;28;20576;-56
2023/03/08 09:48:33;;;;;;;5.57;5.00;;;;;;;7.90;83.98;94959.63;5072423;28;20566;-56
2023/03/08 09:51:04;;;;;;;5.33;4.83;;;;;;;7.94;83.18;94968.81;5072614;28;20206;-57
2023/03/08 09:53:35;;;;;;;5.77;5.27;;;;;;;7.96;83.66;94981.84;5073165;28;20210;-57
2023/03/08 09:56:03;;;;;;;6.13;5.60;;;;;;;7.71;84.01;94957.38;5072599;28;20206;-54
2023/03/08 09:58:35;;;;;;;6.03;5.43;;;;;;;7.57;83.76;94960.69;5072323;28;20650;-56
2023/03/08 10:01:10;;;;;;;7.47;5.47;;;;;;;7.80;82.39;94960.78;5072296;28;20560;-56
2023/03/08 10:03:59;;;;;;;7.67;5.03;;;;;;;7.73;83.01;94958.00;5072694;28;20539;-54
2023/03/08 10:06:31;;;;;;;5.30;4.80;;;;;;;7.65;85.25;94957.22;5072345;28;20250;-56
2023/03/08 10:09:02;;;;;;;5.60;4.60;;;;;;;7.62;85.48;94953.09;5073986;28;20531;-55
2023/03/08 10:11:32;;;;;;;5.40;4.90;;;;;;;7.72;85.98;94959.00;5071484;28;20195;-56
2023/03/08 10:14:03;;;;;;;5.17;4.67;;;;;;;7.85;86.28;94975.09;5071492;28;20544;-55
2023/03/08 10:16:33;;;;;;;5.73;5.13;;;;;;;7.89;87.55;94959.81;5071930;28;20223;-56
2023/03/08 10:19:05;;;;;;;6.50;5.03;;;;;;;7.91;87.83;94973.59;5074156;28;20203;-56
2023/03/08 10:21:33;;;;;;;5.13;4.70;;;;;;;7.89;87.18;94971.16;5072088;28;20213;-56
2023/03/08 10:24:02;;;;;;;5.30;4.80;;;;;;;7.92;87.80;94973.44;5071475;28;20202;-56
2023/03/08 10:26:29;;;;;;;4.90;4.50;;;;;;;7.96;87.53;94982.66;5071447;28;20612;-56
2023/03/08 10:28:58;;;;;;;4.83;4.47;;;;;;;7.96;87.84;94977.41;5071488;28;20203;-56
2023/03/08 10:31:25;;;;;;;5.30;4.80;;;;;;;7.85;88.48;94985.63;5071576;28;20245;-55
2023/03/08 10:34:01;;;;;;;6.03;5.27;;;;;;;7.87;89.51;94986.28;5071366;28;20227;-56
2023/03/08 10:36:30;;;;;;;6.03;5.43;;;;;;;7.84;91.04;94988.41;5073178;28;20639;-55
2023/03/08 10:38:59;;;;;;;5.83;5.23;;;;;;;7.75;92.20;94987.63;5073725;28;20218;-56
2023/03/08 10:41:27;;;;;;;6.07;5.47;;;;;;;7.91;90.82;94998.13;5072449;28;20256;-56
2023/03/08 10:43:55;;;;;;;6.30;5.67;;;;;;;7.89;90.50;94986.13;5070448;28;20559;-55
2023/03/08 10:46:23;;;;;;;6.77;5.93;;;;;;;7.97;88.63;94981.66;5071168;28;20272;-55
2023/03/08 10:48:50;;;;;;;5.63;5.20;;;;;;;8.12;90.61;94978.31;5071086;28;20234;-56
2023/03/08 10:51:18;;;;;;;6.30;5.70;;;;;;;8.22;90.95;94989.50;5071136;28;20824;-56
2023/03/08 10:53:54;;;;;;;7.13;5.90;;;;;;;8.23;91.07;94972.69;5070636;28;20207;-56
2023/03/08 10:56:24;;;;;;;6.53;5.30;;;;;;;8.30;92.00;94979.78;5071084;28;20220;-56
2023/03/08 10:58:55;;;;;;;6.50;5.80;;;;;;;8.30;87.37;94978.97;5071281;28;20210;-56
2023/03/08 11:01:24;;;;;;;5.97;5.37;;;;;;;8.42;89.44;94961.81;5071052;28;20225;-56
2023/03/08 11:03:58;;;;;;;5.80;5.30;;;;;;;8.46;89.57;94963.94;5070579;28;20846;-56
2023/03/08 11:06:25;;;;;;;5.90;5.30;;;;;;;8.56;87.94;94958.47;5070620;28;21405;-56
2023/03/08 11:08:54;;;;;;;5.40;4.90;;;;;;;8.59;89.44;94967.84;5071077;28;20229;-55
2023/03/08 11:11:21;;;;;;;6.40;5.63;;;;;;;8.68;90.08;94966.81;5070477;28;20209;-56
2023/03/08 11:13:49;;;;;;;5.37;4.87;;;;;;;8.75;88.97;94971.19;5071325;28;20221;-56
2023/03/08 11:16:28;;;;;;;5.27;4.40;;;;;;;8.91;87.78;94972.94;5070882;28;20203;-56
2023/03/08 11:19:03;;;;;;;5.23;4.27;;;;;;;8.96;87.43;94979.31;5071914;28;20260;-56
2023/03/08 11:21:41;;;;;;;5.30;4.80;;;;;;;8.93;87.20;94974.41;5070771;28;20515;-56
2023/03/08 11:24:23;;;;;;;5.83;4.67;;;;;;;8.91;89.32;94979.03;5071465;28;20198;-57
2023/03/08 11:26:58;;;;;;;4.90;4.43;;;;;;;8.97;87.24;94985.41;5070730;28;20243;-56
2023/03/08 11:29:33;;;;;;;5.33;4.90;;;;;;;9.02;87.37;94983.09;5070667;28;20202;-56
2023/03/08 11:32:05;;;;;;;5.50;5.00;;;;;;;9.03;85.78;94982.09;5071362;28;20537;-56
2023/03/08 11:34:50;;;;;;;5.57;5.07;;;;;;;9.05;86.75;94997.75;5071070;28;20210;-56
2023/03/08 11:37:23;;;;;;;5.20;4.70;;;;;;;9.05;85.94;94984.56;5070054;28;20203;-56
2023/03/08 11:39:54;;;;;;;5.40;4.93;;;;;;;9.08;87.36;94989.47;5070669;28;20190;-56